createdAt,value
2023-02-24T00:01:57.007Z,5.70
2023-02-24T00:04:26.689Z,3.83
2023-02-24T00:06:58.511Z,5.15
2023-02-24T00:09:28.591Z,3.38
2023-02-24T00:12:00.030Z,3.92
2023-02-24T00:14:30.513Z,4.65
2023-02-24T00:17:00.368Z,4.00
2023-02-24T00:19:32.638Z,3.75
2023-02-24T00:22:03.897Z,4.35
2023-02-24T00:24:33.524Z,3.55
2023-02-24T00:27:07.584Z,4.70
2023-02-24T00:29:37.831Z,4.20
2023-02-24T00:32:13.325Z,4.53
2023-02-24T00:34:43.271Z,4.82
2023-02-24T00:37:15.421Z,4.18
2023-02-24T00:39:47.093Z,4.60
2023-02-24T00:42:16.091Z,3.95
2023-02-24T00:44:46.534Z,4.00
2023-02-24T00:47:18.630Z,3.60
2023-02-24T00:49:48.318Z,2.78
2023-02-24T00:52:19.711Z,4.30
2023-02-24T00:54:49.612Z,4.22
2023-02-24T00:57:21.266Z,4.25
2023-02-24T00:59:52.798Z,4.95
2023-02-24T01:02:21.988Z,4.22
2023-02-24T01:04:51.558Z,4.85
2023-02-24T01:07:21.986Z,6.07
2023-02-24T01:09:52.252Z,3.80
2023-02-24T01:12:38.737Z,4.05
2023-02-24T01:15:10.111Z,4.25
2023-02-24T01:17:41.586Z,4.68
2023-02-24T01:20:19.091Z,4.10
2023-02-24T01:22:50.733Z,3.88
2023-02-24T01:25:20.573Z,4.18
2023-02-24T01:27:50.863Z,3.67
2023-02-24T01:30:20.688Z,4.18
2023-02-24T01:32:51.371Z,3.20
2023-02-24T01:35:21.000Z,3.70
2023-02-24T01:37:53.335Z,5.82
2023-02-24T01:40:22.333Z,4.07
2023-02-24T01:42:52.148Z,5.22
2023-02-24T01:45:25.087Z,5.00
2023-02-24T01:47:54.810Z,4.10
2023-02-24T01:50:26.118Z,3.72
2023-02-24T01:52:59.185Z,3.53
2023-02-24T01:55:32.060Z,3.13
2023-02-24T01:58:02.450Z,4.28
2023-02-24T02:00:37.392Z,4.15
2023-02-24T02:03:13.177Z,3.55
2023-02-24T02:05:45.320Z,4.38
2023-02-24T02:08:15.865Z,3.53
2023-02-24T02:10:46.362Z,3.83
2023-02-24T02:13:21.108Z,4.30
2023-02-24T02:15:56.789Z,5.13
2023-02-24T02:18:32.176Z,2.92
2023-02-24T02:21:24.877Z,3.40
2023-02-24T02:24:09.620Z,4.75
2023-02-24T02:27:00.419Z,3.30
2023-02-24T02:29:52.496Z,6.50
2023-02-24T02:32:36.019Z,5.45
2023-02-24T02:35:12.144Z,3.08
2023-02-24T02:37:46.321Z,3.72
2023-02-24T02:40:20.084Z,3.92
2023-02-24T02:42:52.179Z,3.90
2023-02-24T02:45:24.954Z,3.13
2023-02-24T02:47:56.379Z,4.03
2023-02-24T02:50:30.135Z,3.40
2023-02-24T02:53:02.922Z,4.90
2023-02-24T02:55:36.416Z,4.25
2023-02-24T02:58:09.166Z,3.88
2023-02-24T03:00:42.092Z,4.25
2023-02-24T03:03:12.675Z,4.10
2023-02-24T03:05:48.473Z,3.50
2023-02-24T03:08:20.140Z,3.85
2023-02-24T03:10:54.522Z,4.78
2023-02-24T03:13:25.965Z,3.95
2023-02-24T03:15:55.880Z,3.00
2023-02-24T03:18:29.220Z,4.47
2023-02-24T03:21:06.659Z,3.85
2023-02-24T03:23:37.431Z,6.15
2023-02-24T03:26:16.871Z,5.07
2023-02-24T03:28:55.068Z,3.92
2023-02-24T03:31:27.753Z,3.50
2023-02-24T03:34:00.697Z,4.47
2023-02-24T03:36:32.072Z,3.95
2023-02-24T03:39:02.603Z,4.65
2023-02-24T03:41:39.520Z,3.55
2023-02-24T03:44:11.186Z,4.38
2023-02-24T03:46:42.623Z,3.47
2023-02-24T03:49:14.030Z,3.38
2023-02-24T03:51:48.859Z,3.47
2023-02-24T03:54:31.266Z,4.85
2023-02-24T03:57:07.422Z,3.70
2023-02-24T03:59:47.350Z,5.80
2023-02-24T04:02:20.832Z,4.40
2023-02-24T04:04:57.378Z,3.92
2023-02-24T04:07:42.591Z,3.97
2023-02-24T04:10:15.321Z,3.95
2023-02-24T04:12:51.874Z,4.07
2023-02-24T04:15:24.000Z,4.20
2023-02-24T04:17:57.444Z,3.78
2023-02-24T04:20:32.120Z,4.13
2023-02-24T04:23:09.725Z,4.22
2023-02-24T04:25:40.894Z,4.07
2023-02-24T04:28:10.718Z,3.35
2023-02-24T04:30:45.266Z,5.03
2023-02-24T04:33:15.834Z,3.42
2023-02-24T04:35:46.646Z,3.03
2023-02-24T04:38:19.140Z,3.90
2023-02-24T04:40:49.878Z,3.13
2023-02-24T04:43:19.624Z,3.85
2023-02-24T04:45:48.856Z,4.13
2023-02-24T04:48:19.864Z,3.60
2023-02-24T04:50:54.960Z,3.45
2023-02-24T04:53:27.299Z,3.97
2023-02-24T04:55:56.739Z,3.53
2023-02-24T04:58:28.020Z,3.38
2023-02-24T05:00:57.464Z,4.05
2023-02-24T05:03:28.413Z,3.72
2023-02-24T05:06:00.219Z,3.75
2023-02-24T05:11:01.003Z,3.92
2023-02-24T05:13:33.722Z,4.20
2023-02-24T05:16:06.293Z,4.05
2023-02-24T05:18:37.466Z,4.25
2023-02-24T05:21:25.103Z,3.30
2023-02-24T05:23:55.176Z,3.83
2023-02-24T05:26:26.398Z,4.63
2023-02-24T05:28:59.683Z,5.05
2023-02-24T05:31:29.592Z,3.67
2023-02-24T05:33:59.183Z,3.80
2023-02-24T05:36:29.498Z,3.55
2023-02-24T05:38:59.545Z,4.28
2023-02-24T05:41:32.647Z,3.53
2023-02-24T05:44:04.928Z,3.22
2023-02-24T05:46:38.836Z,3.47
2023-02-24T05:49:09.824Z,3.30
2023-02-24T05:51:43.348Z,3.75
2023-02-24T05:54:14.836Z,3.47
2023-02-24T05:56:47.997Z,3.67
2023-02-24T05:59:21.332Z,3.65
2023-02-24T06:01:54.115Z,6.18
2023-02-24T06:04:39.269Z,3.08
2023-02-24T06:07:12.952Z,2.78
2023-02-24T06:09:43.011Z,2.83
2023-02-24T06:12:15.029Z,3.10
2023-02-24T06:14:45.126Z,2.85
2023-02-24T06:17:15.167Z,2.92
2023-02-24T06:19:44.448Z,2.42
2023-02-24T06:22:14.779Z,2.72
2023-02-24T06:24:45.327Z,2.78
2023-02-24T06:27:18.757Z,2.70
2023-02-24T06:29:50.500Z,3.42
2023-02-24T06:32:21.678Z,2.63
2023-02-24T06:34:51.690Z,2.72
2023-02-24T06:37:20.747Z,3.05
2023-02-24T06:39:49.754Z,2.35
2023-02-24T06:42:20.197Z,2.88
2023-02-24T06:44:50.402Z,2.70
2023-02-24T06:47:19.461Z,3.05
2023-02-24T06:49:48.821Z,2.15
2023-02-24T06:52:19.190Z,2.88
2023-02-24T06:54:49.558Z,3.83
2023-02-24T06:57:20.724Z,3.15
2023-02-24T06:59:50.894Z,3.38
2023-02-24T07:02:19.973Z,2.65
2023-02-24T07:04:49.054Z,3.10
2023-02-24T07:07:18.905Z,2.67
2023-02-24T07:09:47.879Z,2.22
2023-02-24T07:12:21.063Z,2.42
2023-02-24T07:14:51.649Z,2.38
2023-02-24T07:17:21.002Z,2.75
2023-02-24T07:19:50.018Z,2.03
2023-02-24T07:22:25.191Z,2.17
2023-02-24T07:25:00.527Z,3.10
2023-02-24T07:27:30.124Z,1.80
2023-02-24T07:30:06.091Z,2.22
2023-02-24T07:32:35.493Z,2.30
2023-02-24T07:35:04.606Z,2.55
2023-02-24T07:37:34.944Z,2.67
2023-02-24T07:40:08.045Z,2.13
2023-02-24T07:42:37.100Z,2.55
2023-02-24T07:45:11.246Z,2.13
2023-02-24T07:47:41.225Z,2.13
2023-02-24T07:50:14.448Z,1.50
2023-02-24T07:52:43.343Z,1.85
2023-02-24T07:55:12.697Z,2.10
2023-02-24T07:57:46.548Z,2.03
2023-02-24T08:00:19.422Z,1.90
2023-02-24T08:02:49.796Z,2.45
2023-02-24T08:05:19.305Z,2.67
2023-02-24T08:07:49.880Z,2.28
2023-02-24T08:10:25.238Z,1.88
2023-02-24T08:12:55.859Z,1.92
2023-02-24T08:15:33.894Z,2.25
2023-02-24T08:18:03.345Z,2.38
2023-02-24T08:20:52.023Z,1.80
2023-02-24T08:23:23.606Z,2.22
2023-02-24T08:25:54.030Z,2.70
2023-02-24T08:28:26.884Z,2.13
2023-02-24T08:30:57.493Z,2.13
2023-02-24T08:33:30.151Z,2.13
2023-02-24T08:36:02.474Z,2.50
2023-02-24T08:38:44.910Z,1.83
2023-02-24T08:41:17.848Z,2.00
2023-02-24T08:43:47.611Z,2.08
2023-02-24T08:46:19.755Z,2.50
2023-02-24T08:48:49.537Z,2.83
2023-02-24T08:51:22.900Z,2.08
2023-02-24T08:53:53.748Z,2.03
2023-02-24T08:56:24.847Z,2.97
2023-02-24T08:58:57.231Z,2.30
2023-02-24T09:01:34.822Z,2.00
2023-02-24T09:04:05.213Z,2.00
2023-02-24T09:06:39.551Z,2.17
2023-02-24T09:09:18.540Z,2.38
2023-02-24T09:11:48.156Z,3.03
2023-02-24T09:14:27.241Z,3.20
2023-02-24T09:17:06.506Z,2.40
2023-02-24T09:20:00.156Z,2.30
2023-02-24T09:22:33.150Z,3.00
2023-02-24T09:25:18.934Z,2.72
2023-02-24T09:27:52.420Z,2.55
2023-02-24T09:30:39.529Z,2.88
2023-02-24T09:33:21.282Z,2.88
2023-02-24T09:35:52.480Z,2.80
2023-02-24T09:38:43.004Z,3.22
2023-02-24T09:41:30.095Z,2.45
2023-02-24T09:44:03.844Z,2.97
2023-02-24T09:46:35.593Z,3.97
2023-02-24T09:49:09.939Z,3.03
2023-02-24T09:51:43.299Z,2.97
2023-02-24T09:54:17.362Z,2.97
2023-02-24T09:56:57.697Z,3.55
2023-02-24T09:59:34.873Z,2.85
2023-02-24T10:02:10.165Z,2.85
2023-02-24T10:04:49.405Z,2.70
2023-02-24T10:07:20.380Z,3.00
2023-02-24T10:09:52.627Z,3.28
2023-02-24T10:12:25.099Z,3.03
2023-02-24T10:15:15.926Z,3.10
2023-02-24T10:17:48.333Z,3.22
2023-02-24T10:20:31.373Z,3.30
2023-02-24T10:23:02.581Z,3.80
2023-02-24T10:25:40.392Z,3.67
2023-02-24T10:28:17.825Z,4.20
2023-02-24T10:30:50.246Z,3.78
2023-02-24T10:33:25.407Z,3.45
2023-02-24T10:36:17.367Z,3.92
2023-02-24T10:38:50.767Z,3.10
2023-02-24T10:41:20.507Z,4.07
2023-02-24T10:43:56.315Z,3.63
2023-02-24T10:46:40.218Z,3.55
2023-02-24T10:49:16.954Z,3.78
2023-02-24T10:51:50.740Z,3.53
2023-02-24T10:54:45.254Z,3.45
2023-02-24T10:57:23.184Z,3.30
2023-02-24T11:00:14.066Z,4.93
2023-02-24T11:03:07.095Z,3.45
2023-02-24T11:05:44.631Z,3.72
2023-02-24T11:08:36.765Z,3.72
2023-02-24T11:11:20.359Z,3.90
2023-02-24T11:14:09.127Z,4.35
2023-02-24T11:17:07.455Z,4.80
2023-02-24T11:19:43.655Z,3.47
2023-02-24T11:22:15.238Z,3.67
2023-02-24T11:24:46.271Z,3.75
2023-02-24T11:27:20.454Z,4.28
2023-02-24T11:30:00.167Z,4.07
2023-02-24T11:32:38.146Z,4.32
2023-02-24T11:35:12.523Z,4.22
2023-02-24T11:37:43.576Z,4.03
2023-02-24T11:40:16.364Z,3.80
2023-02-24T11:42:49.911Z,4.28
2023-02-24T11:45:27.245Z,4.57
2023-02-24T11:47:57.333Z,4.85
2023-02-24T11:50:44.541Z,5.10
2023-02-24T11:53:20.542Z,5.65
2023-02-24T11:55:51.539Z,5.03
2023-02-24T11:58:24.991Z,4.57
2023-02-24T12:00:57.807Z,6.60
2023-02-24T12:03:30.492Z,4.85
2023-02-24T12:06:03.323Z,5.60
2023-02-24T12:08:34.621Z,5.03
2023-02-24T12:11:05.832Z,5.30
2023-02-24T12:13:40.171Z,5.25
2023-02-24T12:16:12.771Z,5.25
2023-02-24T12:18:43.168Z,5.72
2023-02-24T12:21:14.913Z,5.38
2023-02-24T12:23:45.816Z,5.70
2023-02-24T12:26:18.981Z,6.32
2023-02-24T12:29:00.711Z,6.22
2023-02-24T12:31:33.949Z,6.93
2023-02-24T12:34:09.356Z,4.45
2023-02-24T12:36:45.558Z,4.85
2023-02-24T12:39:18.267Z,7.05
2023-02-24T12:41:54.050Z,5.82
2023-02-24T12:44:29.414Z,6.03
2023-02-24T12:47:06.284Z,5.22
2023-02-24T12:49:40.385Z,5.75
2023-02-24T12:52:14.408Z,5.03
2023-02-24T12:54:48.878Z,4.72
2023-02-24T12:57:21.087Z,4.93
2023-02-24T12:59:52.669Z,4.43
2023-02-24T13:02:27.302Z,3.85
2023-02-24T13:04:58.701Z,4.45
2023-02-24T13:07:36.603Z,3.15
2023-02-24T13:10:12.008Z,3.92
2023-02-24T13:12:44.234Z,3.35
2023-02-24T13:15:20.932Z,3.97
2023-02-24T13:17:51.663Z,3.83
2023-02-24T13:20:27.664Z,4.72
2023-02-24T13:22:58.848Z,3.50
2023-02-24T13:25:31.360Z,3.85
2023-02-24T13:28:01.986Z,3.78
2023-02-24T13:30:43.435Z,2.90
2023-02-24T13:33:26.410Z,3.13
2023-02-24T13:36:07.096Z,3.20
2023-02-24T13:38:37.883Z,3.50
2023-02-24T13:41:10.984Z,2.92
2023-02-24T13:43:40.081Z,2.28
2023-02-24T13:46:19.176Z,2.13
2023-02-24T13:49:09.139Z,2.03
2023-02-24T13:51:47.568Z,2.40
2023-02-24T13:54:24.860Z,1.98
2023-02-24T13:56:57.330Z,2.30
2023-02-24T13:59:34.053Z,2.10
2023-02-24T14:02:06.243Z,2.00
2023-02-24T14:04:39.683Z,1.67
2023-02-24T14:07:12.009Z,2.47
2023-02-24T14:09:42.363Z,2.97
2023-02-24T14:12:15.492Z,3.15
2023-02-24T14:14:45.164Z,2.17
2023-02-24T14:17:24.514Z,2.50
2023-02-24T14:19:54.091Z,3.17
2023-02-24T14:22:23.701Z,2.53
2023-02-24T14:25:02.815Z,2.67
2023-02-24T14:27:32.180Z,2.25
2023-02-24T14:30:01.426Z,2.60
2023-02-24T14:32:34.434Z,1.98
2023-02-24T14:35:04.423Z,2.45
2023-02-24T14:37:35.282Z,1.80
2023-02-24T14:40:06.000Z,2.00
2023-02-24T14:42:36.512Z,2.53
2023-02-24T14:45:18.246Z,2.20
2023-02-24T14:47:48.758Z,2.75
2023-02-24T14:50:19.280Z,1.55
2023-02-24T14:52:51.402Z,1.63
2023-02-24T14:55:21.866Z,2.25
2023-02-24T14:57:56.734Z,1.45
2023-02-24T15:00:27.005Z,1.85
2023-02-24T15:03:03.256Z,1.70
2023-02-24T15:05:32.870Z,1.45
2023-02-24T15:08:03.886Z,2.28
2023-02-24T15:10:33.395Z,2.22
2023-02-24T15:13:13.399Z,2.38
2023-02-24T15:15:42.741Z,2.25
2023-02-24T15:18:16.437Z,1.98
2023-02-24T15:20:45.416Z,2.10
2023-02-24T15:23:27.581Z,2.80
2023-02-24T15:28:27.106Z,1.88
2023-02-24T15:31:08.485Z,2.20
2023-02-24T15:33:41.590Z,1.55
2023-02-24T15:36:12.846Z,1.27
2023-02-24T15:38:43.463Z,1.75
2023-02-24T15:41:13.701Z,1.85
2023-02-24T15:43:48.097Z,1.75
2023-02-24T15:46:30.498Z,1.70
2023-02-24T15:49:03.259Z,2.90
2023-02-24T15:51:38.324Z,1.30
2023-02-24T15:54:08.370Z,1.38
2023-02-24T15:56:38.104Z,1.65
2023-02-24T15:59:07.498Z,1.77
2023-02-24T16:01:36.747Z,2.10
2023-02-24T16:04:09.477Z,1.08
2023-02-24T16:06:42.460Z,1.90
2023-02-24T16:09:14.083Z,1.95
2023-02-24T16:11:45.364Z,1.77
2023-02-24T16:14:16.115Z,1.30
2023-02-24T16:16:45.972Z,2.13
2023-02-24T16:19:17.532Z,1.63
2023-02-24T16:21:46.973Z,1.75
2023-02-24T16:24:16.257Z,2.90
2023-02-24T16:26:45.929Z,2.15
2023-02-24T16:29:16.696Z,1.00
2023-02-24T16:31:46.631Z,1.55
2023-02-24T16:34:17.821Z,1.40
2023-02-24T16:36:47.971Z,1.90
2023-02-24T16:39:16.967Z,1.58
2023-02-24T16:41:46.045Z,1.88
2023-02-24T16:44:15.129Z,0.90
2023-02-24T16:46:45.930Z,2.17
2023-02-24T16:49:19.816Z,1.85
2023-02-24T16:51:49.339Z,1.33
2023-02-24T16:54:21.945Z,1.38
2023-02-24T16:56:51.272Z,2.53
2023-02-24T16:59:20.308Z,1.20
2023-02-24T17:01:49.523Z,0.85
2023-02-24T17:04:20.646Z,1.30
2023-02-24T17:06:49.819Z,1.65
2023-02-24T17:09:18.867Z,1.80
2023-02-24T17:11:48.655Z,1.58
2023-02-24T17:14:18.833Z,1.67
2023-02-24T17:16:48.618Z,0.85
2023-02-24T17:19:17.814Z,1.95
2023-02-24T17:21:48.555Z,1.40
2023-02-24T17:24:18.934Z,1.50
2023-02-24T17:26:51.043Z,0.80
2023-02-24T17:29:20.192Z,2.00
2023-02-24T17:31:49.782Z,0.75
2023-02-24T17:34:21.357Z,3.00
2023-02-24T17:36:52.370Z,1.80
2023-02-24T17:39:21.638Z,2.07
2023-02-24T17:41:50.866Z,3.08
2023-02-24T17:44:19.907Z,1.60
2023-02-24T17:46:49.511Z,1.85
2023-02-24T17:49:18.756Z,2.38
2023-02-24T17:51:48.158Z,1.70
2023-02-24T17:54:19.380Z,1.70
2023-02-24T17:56:48.523Z,2.05
2023-02-24T17:59:17.675Z,1.92
2023-02-24T18:01:47.160Z,2.15
2023-02-24T18:04:16.181Z,2.08
2023-02-24T18:06:45.878Z,1.67
2023-02-24T18:09:14.874Z,2.08
2023-02-24T18:11:45.943Z,1.42
2023-02-24T18:14:15.598Z,1.50
2023-02-24T18:16:44.752Z,2.15
2023-02-24T18:19:14.191Z,3.28
2023-02-24T18:21:43.830Z,2.80
2023-02-24T18:24:13.109Z,2.42
2023-02-24T18:26:42.254Z,2.15
2023-02-24T18:29:12.807Z,2.28
2023-02-24T18:31:42.062Z,1.83
2023-02-24T18:34:11.913Z,1.75
2023-02-24T18:36:41.017Z,0.95
2023-02-24T18:39:12.392Z,1.02
2023-02-24T18:41:42.280Z,0.90
2023-02-24T18:44:13.516Z,0.73
2023-02-24T18:46:42.521Z,2.00
2023-02-24T18:49:12.328Z,0.85
2023-02-24T18:51:41.501Z,1.33
2023-02-24T18:54:12.181Z,1.75
2023-02-24T18:56:41.612Z,1.17
2023-02-24T18:59:10.534Z,1.58
2023-02-24T19:01:41.317Z,1.48
2023-02-24T19:04:10.769Z,0.82
2023-02-24T19:06:41.565Z,0.80
2023-02-24T19:09:11.772Z,1.33
2023-02-24T19:11:41.697Z,0.60
2023-02-24T19:14:12.065Z,1.25
2023-02-24T19:16:43.044Z,2.03
2023-02-24T19:19:13.583Z,0.98
2023-02-24T19:21:45.371Z,1.40
2023-02-24T19:26:44.386Z,0.80
2023-02-24T19:29:13.695Z,1.05
2023-02-24T19:31:44.427Z,1.55
2023-02-24T19:34:14.220Z,1.88
2023-02-24T19:36:43.614Z,2.55
2023-02-24T19:39:14.288Z,2.00
2023-02-24T19:41:43.469Z,1.92
2023-02-24T19:44:15.925Z,1.48
2023-02-24T19:46:46.485Z,2.08
2023-02-24T19:49:15.664Z,1.60
2023-02-24T19:51:46.626Z,1.38
2023-02-24T19:54:17.236Z,1.10
2023-02-24T19:56:46.326Z,1.40
2023-02-24T19:59:15.621Z,0.95
2023-02-24T20:01:46.704Z,2.55
2023-02-24T20:04:16.813Z,1.10
2023-02-24T20:06:46.373Z,1.60
2023-02-24T20:09:16.445Z,1.95
2023-02-24T20:11:46.326Z,1.40
2023-02-24T20:14:16.031Z,2.42
2023-02-24T20:16:47.290Z,2.85
2023-02-24T20:19:18.031Z,1.65
2023-02-24T20:21:47.550Z,1.33
2023-02-24T20:24:17.155Z,3.53
2023-02-24T20:26:47.483Z,12.02
2023-02-24T20:29:17.012Z,3.03
2023-02-24T20:31:47.806Z,5.07
2023-02-24T20:34:17.945Z,2.05
2023-02-24T20:36:47.183Z,3.92
2023-02-24T20:39:16.446Z,2.47
2023-02-24T20:41:46.549Z,2.45
2023-02-24T20:44:15.797Z,1.60
2023-02-24T20:46:44.792Z,3.85
2023-02-24T20:49:15.709Z,4.68
2023-02-24T20:51:45.121Z,6.03
2023-02-24T20:54:14.723Z,3.67
2023-02-24T20:56:44.951Z,1.83
2023-02-24T20:59:15.243Z,2.38
2023-02-24T21:01:47.202Z,3.08
2023-02-24T21:04:20.924Z,2.00
2023-02-24T21:06:52.021Z,1.25
2023-02-24T21:09:21.024Z,1.63
2023-02-24T21:11:51.291Z,1.38
2023-02-24T21:14:22.030Z,1.25
2023-02-24T21:16:51.338Z,1.70
2023-02-24T21:19:21.918Z,0.90
2023-02-24T21:21:51.002Z,1.38
2023-02-24T21:24:21.074Z,1.20
2023-02-24T21:26:50.389Z,1.63
2023-02-24T21:29:19.872Z,1.85
2023-02-24T21:31:50.007Z,2.47
2023-02-24T21:34:19.351Z,3.58
2023-02-24T21:36:49.708Z,2.22
2023-02-24T21:39:18.858Z,3.10
2023-02-24T21:41:48.498Z,1.55
2023-02-24T21:44:17.478Z,1.90
2023-02-24T21:46:46.612Z,2.35
2023-02-24T21:49:15.747Z,2.97
2023-02-24T21:51:45.813Z,2.55
2023-02-24T21:54:16.143Z,1.67
2023-02-24T21:56:45.096Z,1.80
2023-02-24T21:59:14.468Z,3.78
2023-02-24T22:01:45.156Z,2.95
2023-02-24T22:04:15.278Z,1.80
2023-02-24T22:06:45.744Z,2.03
2023-02-24T22:09:19.336Z,4.10
2023-02-24T22:11:49.300Z,2.05
2023-02-24T22:14:18.404Z,1.98
2023-02-24T22:16:47.960Z,1.77
2023-02-24T22:19:19.043Z,3.22
2023-02-24T22:21:48.238Z,2.30
2023-02-24T22:24:19.450Z,1.85
2023-02-24T22:26:48.669Z,1.73
2023-02-24T22:29:17.850Z,1.73
2023-02-24T22:31:49.844Z,1.73
2023-02-24T22:36:48.029Z,1.48
2023-02-24T22:39:17.449Z,1.42
2023-02-24T22:41:47.870Z,1.00
2023-02-24T22:44:19.335Z,0.82
2023-02-24T22:46:49.371Z,2.60
2023-02-24T22:49:18.488Z,0.85
2023-02-24T22:51:48.659Z,1.30
2023-02-24T22:54:17.721Z,1.15
2023-02-24T22:56:48.127Z,1.30
2023-02-24T22:59:17.221Z,1.50
2023-02-24T23:01:46.391Z,1.10
2023-02-24T23:04:16.871Z,2.22
2023-02-24T23:06:47.545Z,1.15
2023-02-24T23:09:20.068Z,1.30
2023-02-24T23:11:50.605Z,1.15
2023-02-24T23:14:20.535Z,1.38
2023-02-24T23:16:53.815Z,1.80
2023-02-24T23:19:23.926Z,1.35
2023-02-24T23:21:54.157Z,1.60
2023-02-24T23:24:24.070Z,1.77
2023-02-24T23:26:57.759Z,3.85
2023-02-24T23:29:27.610Z,1.85
2023-02-24T23:31:57.314Z,2.25
2023-02-24T23:34:26.552Z,1.55
2023-02-24T23:36:55.660Z,2.55
2023-02-24T23:39:24.723Z,1.10
2023-02-24T23:41:57.596Z,1.60
2023-02-24T23:44:26.822Z,1.23
2023-02-24T23:46:58.433Z,1.33
2023-02-24T23:49:39.061Z,1.52
2023-02-24T23:52:15.338Z,1.33
2023-02-24T23:54:44.769Z,1.73
2023-02-24T23:57:15.430Z,1.58
2023-02-24T23:59:44.507Z,1.63
